sensor_id;sensor_type;location;lat;lon;timestamp;P1;durP1;ratioP1;P2;durP2;ratioP2
10144;SDS011;5113;41.822;23.564;2022-10-26T00:01:26;5.37;;;4.63;;
10144;SDS011;5113;41.822;23.564;2022-10-26T00:04:33;8.73;;;5.37;;
10144;SDS011;5113;41.822;23.564;2022-10-26T00:07:39;10.63;;;4.67;;
10144;SDS011;5113;41.822;23.564;2022-10-26T00:10:45;17.67;;;5.80;;
10144;SDS011;5113;41.822;23.564;2022-10-26T00:13:52;15.80;;;4.83;;
10144;SDS011;5113;41.822;23.564;2022-10-26T00:16:59;7.83;;;5.33;;
10144;SDS011;5113;41.822;23.564;2022-10-26T00:20:06;13.97;;;5.37;;
10144;SDS011;5113;41.822;23.564;2022-10-26T00:23:13;9.23;;;4.67;;
10144;SDS011;5113;41.822;23.564;2022-10-26T00:26:19;7.73;;;4.33;;
10144;SDS011;5113;41.822;23.564;2022-10-26T00:29:26;12.00;;;5.10;;
10144;SDS011;5113;41.822;23.564;2022-10-26T00:32:34;17.53;;;5.60;;
10144;SDS011;5113;41.822;23.564;2022-10-26T00:35:40;13.57;;;5.23;;
10144;SDS011;5113;41.822;23.564;2022-10-26T00:38:50;11.43;;;5.40;;
10144;SDS011;5113;41.822;23.564;2022-10-26T00:41:57;14.13;;;10.03;;
10144;SDS011;5113;41.822;23.564;2022-10-26T00:45:04;8.83;;;6.90;;
10144;SDS011;5113;41.822;23.564;2022-10-26T00:48:23;7.60;;;5.20;;
10144;SDS011;5113;41.822;23.564;2022-10-26T00:51:34;9.40;;;3.93;;
10144;SDS011;5113;41.822;23.564;2022-10-26T00:54:43;8.90;;;4.53;;
10144;SDS011;5113;41.822;23.564;2022-10-26T00:57:50;5.53;;;3.93;;
10144;SDS011;5113;41.822;23.564;2022-10-26T01:00:57;8.43;;;4.20;;
10144;SDS011;5113;41.822;23.564;2022-10-26T01:04:05;6.60;;;3.83;;
10144;SDS011;5113;41.822;23.564;2022-10-26T01:07:11;10.27;;;4.30;;
10144;SDS011;5113;41.822;23.564;2022-10-26T01:10:19;14.97;;;4.67;;
10144;SDS011;5113;41.822;23.564;2022-10-26T01:13:26;9.70;;;3.77;;
10144;SDS011;5113;41.822;23.564;2022-10-26T01:16:39;6.20;;;3.70;;
10144;SDS011;5113;41.822;23.564;2022-10-26T01:20:04;9.10;;;4.57;;
10144;SDS011;5113;41.822;23.564;2022-10-26T01:23:43;6.23;;;4.57;;
10144;SDS011;5113;41.822;23.564;2022-10-26T01:27:16;7.33;;;4.03;;
10144;SDS011;5113;41.822;23.564;2022-10-26T01:30:32;9.37;;;3.70;;
10144;SDS011;5113;41.822;23.564;2022-10-26T01:33:43;15.63;;;7.20;;
10144;SDS011;5113;41.822;23.564;2022-10-26T01:36:56;13.90;;;7.13;;
10144;SDS011;5113;41.822;23.564;2022-10-26T01:40:07;16.67;;;9.23;;
10144;SDS011;5113;41.822;23.564;2022-10-26T01:43:16;13.60;;;8.97;;
10144;SDS011;5113;41.822;23.564;2022-10-26T01:46:26;17.50;;;6.97;;
10144;SDS011;5113;41.822;23.564;2022-10-26T01:49:38;12.03;;;5.10;;
10144;SDS011;5113;41.822;23.564;2022-10-26T01:52:48;9.53;;;4.33;;
10144;SDS011;5113;41.822;23.564;2022-10-26T01:55:54;6.23;;;4.73;;
10144;SDS011;5113;41.822;23.564;2022-10-26T02:02:42;4.90;;;3.97;;
10144;SDS011;5113;41.822;23.564;2022-10-26T02:06:02;6.57;;;3.83;;
10144;SDS011;5113;41.822;23.564;2022-10-26T02:09:19;5.00;;;3.70;;
10144;SDS011;5113;41.822;23.564;2022-10-26T02:12:38;3.93;;;3.63;;
10144;SDS011;5113;41.822;23.564;2022-10-26T02:15:52;7.33;;;5.17;;
10144;SDS011;5113;41.822;23.564;2022-10-26T02:19:04;10.13;;;5.70;;
10144;SDS011;5113;41.822;23.564;2022-10-26T02:22:15;11.10;;;7.93;;
10144;SDS011;5113;41.822;23.564;2022-10-26T02:25:27;39.90;;;20.67;;
10144;SDS011;5113;41.822;23.564;2022-10-26T02:28:37;12.13;;;10.03;;
10144;SDS011;5113;41.822;23.564;2022-10-26T02:31:47;12.70;;;8.03;;
10144;SDS011;5113;41.822;23.564;2022-10-26T02:34:57;7.67;;;5.00;;
10144;SDS011;5113;41.822;23.564;2022-10-26T02:38:06;5.33;;;3.77;;
10144;SDS011;5113;41.822;23.564;2022-10-26T02:41:15;4.57;;;3.90;;
10144;SDS011;5113;41.822;23.564;2022-10-26T02:44:25;12.53;;;5.87;;
10144;SDS011;5113;41.822;23.564;2022-10-26T02:47:34;4.83;;;4.20;;
10144;SDS011;5113;41.822;23.564;2022-10-26T02:50:43;9.47;;;4.90;;
10144;SDS011;5113;41.822;23.564;2022-10-26T02:53:59;7.00;;;4.07;;
10144;SDS011;5113;41.822;23.564;2022-10-26T02:57:12;4.73;;;3.60;;
10144;SDS011;5113;41.822;23.564;2022-10-26T03:00:21;6.00;;;4.43;;
10144;SDS011;5113;41.822;23.564;2022-10-26T03:03:27;6.43;;;3.40;;
10144;SDS011;5113;41.822;23.564;2022-10-26T03:06:35;4.47;;;3.27;;
10144;SDS011;5113;41.822;23.564;2022-10-26T03:09:41;56.87;;;20.30;;
10144;SDS011;5113;41.822;23.564;2022-10-26T03:12:47;59.97;;;24.10;;
10144;SDS011;5113;41.822;23.564;2022-10-26T03:15:54;34.17;;;12.63;;
10144;SDS011;5113;41.822;23.564;2022-10-26T03:19:04;37.53;;;14.67;;
10144;SDS011;5113;41.822;23.564;2022-10-26T03:22:12;36.87;;;16.77;;
10144;SDS011;5113;41.822;23.564;2022-10-26T03:25:18;27.80;;;15.17;;
10144;SDS011;5113;41.822;23.564;2022-10-26T03:28:24;33.80;;;16.87;;
10144;SDS011;5113;41.822;23.564;2022-10-26T03:31:31;18.97;;;11.27;;
10144;SDS011;5113;41.822;23.564;2022-10-26T03:34:37;29.30;;;13.30;;
10144;SDS011;5113;41.822;23.564;2022-10-26T03:37:44;31.63;;;11.37;;
10144;SDS011;5113;41.822;23.564;2022-10-26T03:40:51;11.83;;;7.47;;
10144;SDS011;5113;41.822;23.564;2022-10-26T03:43:57;13.97;;;8.23;;
10144;SDS011;5113;41.822;23.564;2022-10-26T03:47:04;18.20;;;10.80;;
10144;SDS011;5113;41.822;23.564;2022-10-26T03:50:10;39.73;;;17.07;;
10144;SDS011;5113;41.822;23.564;2022-10-26T03:53:19;24.67;;;11.93;;
10144;SDS011;5113;41.822;23.564;2022-10-26T03:56:25;22.80;;;12.80;;
10144;SDS011;5113;41.822;23.564;2022-10-26T03:59:31;58.07;;;32.00;;
10144;SDS011;5113;41.822;23.564;2022-10-26T04:02:37;72.60;;;32.07;;
10144;SDS011;5113;41.822;23.564;2022-10-26T04:05:44;54.40;;;24.53;;
10144;SDS011;5113;41.822;23.564;2022-10-26T04:08:51;36.20;;;16.80;;
10144;SDS011;5113;41.822;23.564;2022-10-26T04:12:01;23.20;;;13.60;;
10144;SDS011;5113;41.822;23.564;2022-10-26T04:15:08;18.60;;;10.97;;
10144;SDS011;5113;41.822;23.564;2022-10-26T04:18:14;21.77;;;12.83;;
10144;SDS011;5113;41.822;23.564;2022-10-26T04:21:20;27.83;;;14.77;;
10144;SDS011;5113;41.822;23.564;2022-10-26T04:24:28;15.70;;;10.13;;
10144;SDS011;5113;41.822;23.564;2022-10-26T04:27:34;12.27;;;6.20;;
10144;SDS011;5113;41.822;23.564;2022-10-26T04:30:40;21.80;;;7.57;;
10144;SDS011;5113;41.822;23.564;2022-10-26T04:33:47;22.87;;;11.77;;
10144;SDS011;5113;41.822;23.564;2022-10-26T04:36:53;31.90;;;11.93;;
10144;SDS011;5113;41.822;23.564;2022-10-26T04:40:01;44.23;;;15.30;;
10144;SDS011;5113;41.822;23.564;2022-10-26T04:43:12;27.20;;;13.30;;
10144;SDS011;5113;41.822;23.564;2022-10-26T04:46:19;71.80;;;29.20;;
10144;SDS011;5113;41.822;23.564;2022-10-26T04:49:25;55.73;;;26.97;;
10144;SDS011;5113;41.822;23.564;2022-10-26T04:52:31;96.53;;;46.13;;
10144;SDS011;5113;41.822;23.564;2022-10-26T04:55:39;46.77;;;22.97;;
10144;SDS011;5113;41.822;23.564;2022-10-26T04:58:45;36.67;;;15.63;;
10144;SDS011;5113;41.822;23.564;2022-10-26T05:01:52;43.03;;;20.43;;
10144;SDS011;5113;41.822;23.564;2022-10-26T05:04:58;35.60;;;17.70;;
10144;SDS011;5113;41.822;23.564;2022-10-26T05:08:10;26.70;;;14.97;;
10144;SDS011;5113;41.822;23.564;2022-10-26T05:11:17;34.10;;;16.77;;
10144;SDS011;5113;41.822;23.564;2022-10-26T05:14:23;25.63;;;13.60;;
10144;SDS011;5113;41.822;23.564;2022-10-26T05:17:30;16.63;;;11.33;;
10144;SDS011;5113;41.822;23.564;2022-10-26T05:20:36;10.23;;;7.33;;
10144;SDS011;5113;41.822;23.564;2022-10-26T05:23:42;10.33;;;7.00;;
10144;SDS011;5113;41.822;23.564;2022-10-26T05:26:51;15.03;;;8.53;;
10144;SDS011;5113;41.822;23.564;2022-10-26T05:29:57;32.87;;;19.00;;
10144;SDS011;5113;41.822;23.564;2022-10-26T05:33:03;52.73;;;26.67;;
10144;SDS011;5113;41.822;23.564;2022-10-26T05:36:11;56.33;;;22.30;;
10144;SDS011;5113;41.822;23.564;2022-10-26T05:39:17;38.73;;;20.57;;
10144;SDS011;5113;41.822;23.564;2022-10-26T05:42:24;45.77;;;20.03;;
10144;SDS011;5113;41.822;23.564;2022-10-26T05:45:30;33.43;;;17.50;;
10144;SDS011;5113;41.822;23.564;2022-10-26T05:48:37;23.10;;;11.50;;
10144;SDS011;5113;41.822;23.564;2022-10-26T05:51:43;51.97;;;24.83;;
10144;SDS011;5113;41.822;23.564;2022-10-26T05:54:49;45.77;;;22.03;;
10144;SDS011;5113;41.822;23.564;2022-10-26T05:57:57;64.80;;;28.67;;
10144;SDS011;5113;41.822;23.564;2022-10-26T06:01:07;49.13;;;28.60;;
10144;SDS011;5113;41.822;23.564;2022-10-26T06:04:21;48.47;;;26.07;;
10144;SDS011;5113;41.822;23.564;2022-10-26T06:07:34;32.20;;;18.97;;
10144;SDS011;5113;41.822;23.564;2022-10-26T06:10:41;35.87;;;18.47;;
10144;SDS011;5113;41.822;23.564;2022-10-26T06:13:49;36.07;;;19.80;;
10144;SDS011;5113;41.822;23.564;2022-10-26T06:17:00;72.67;;;30.37;;
10144;SDS011;5113;41.822;23.564;2022-10-26T06:20:29;59.13;;;22.83;;
10144;SDS011;5113;41.822;23.564;2022-10-26T06:23:45;43.17;;;17.77;;
10144;SDS011;5113;41.822;23.564;2022-10-26T06:26:57;36.63;;;20.37;;
10144;SDS011;5113;41.822;23.564;2022-10-26T06:30:11;48.13;;;20.93;;
10144;SDS011;5113;41.822;23.564;2022-10-26T06:33:17;23.20;;;13.30;;
10144;SDS011;5113;41.822;23.564;2022-10-26T06:36:34;23.33;;;12.03;;
10144;SDS011;5113;41.822;23.564;2022-10-26T06:39:41;21.03;;;11.40;;
10144;SDS011;5113;41.822;23.564;2022-10-26T06:42:56;14.13;;;9.70;;
10144;SDS011;5113;41.822;23.564;2022-10-26T06:46:06;12.27;;;9.43;;
10144;SDS011;5113;41.822;23.564;2022-10-26T06:49:22;15.53;;;10.60;;
10144;SDS011;5113;41.822;23.564;2022-10-26T06:52:34;17.17;;;10.73;;
10144;SDS011;5113;41.822;23.564;2022-10-26T06:55:46;26.93;;;12.37;;
10144;SDS011;5113;41.822;23.564;2022-10-26T06:58:54;25.90;;;10.47;;
10144;SDS011;5113;41.822;23.564;2022-10-26T07:02:11;16.50;;;10.70;;
10144;SDS011;5113;41.822;23.564;2022-10-26T07:05:18;18.50;;;8.83;;
10144;SDS011;5113;41.822;23.564;2022-10-26T07:08:24;13.17;;;8.60;;
10144;SDS011;5113;41.822;23.564;2022-10-26T07:11:30;12.33;;;9.00;;
10144;SDS011;5113;41.822;23.564;2022-10-26T07:14:37;13.37;;;9.23;;
10144;SDS011;5113;41.822;23.564;2022-10-26T07:17:45;16.17;;;10.03;;
10144;SDS011;5113;41.822;23.564;2022-10-26T07:20:53;17.43;;;10.63;;
10144;SDS011;5113;41.822;23.564;2022-10-26T07:23:59;19.53;;;9.73;;
10144;SDS011;5113;41.822;23.564;2022-10-26T07:27:05;22.73;;;11.17;;
10144;SDS011;5113;41.822;23.564;2022-10-26T07:30:12;16.50;;;9.43;;
10144;SDS011;5113;41.822;23.564;2022-10-26T07:33:20;18.03;;;8.73;;
10144;SDS011;5113;41.822;23.564;2022-10-26T07:36:27;14.60;;;9.23;;
10144;SDS011;5113;41.822;23.564;2022-10-26T07:39:33;14.50;;;9.33;;
10144;SDS011;5113;41.822;23.564;2022-10-26T07:42:39;17.27;;;9.30;;
10144;SDS011;5113;41.822;23.564;2022-10-26T07:45:51;13.97;;;8.03;;
10144;SDS011;5113;41.822;23.564;2022-10-26T07:48:58;13.10;;;7.40;;
10144;SDS011;5113;41.822;23.564;2022-10-26T07:52:04;18.07;;;10.17;;
10144;SDS011;5113;41.822;23.564;2022-10-26T07:55:11;12.13;;;6.07;;
10144;SDS011;5113;41.822;23.564;2022-10-26T07:58:17;19.40;;;8.87;;
10144;SDS011;5113;41.822;23.564;2022-10-26T08:01:26;13.33;;;7.70;;
10144;SDS011;5113;41.822;23.564;2022-10-26T08:04:34;22.33;;;7.83;;
10144;SDS011;5113;41.822;23.564;2022-10-26T08:07:40;13.23;;;8.73;;
10144;SDS011;5113;41.822;23.564;2022-10-26T08:10:48;13.83;;;8.80;;
10144;SDS011;5113;41.822;23.564;2022-10-26T08:13:55;9.27;;;8.13;;
10144;SDS011;5113;41.822;23.564;2022-10-26T08:17:02;18.67;;;8.83;;
10144;SDS011;5113;41.822;23.564;2022-10-26T08:20:10;16.97;;;7.43;;
10144;SDS011;5113;41.822;23.564;2022-10-26T08:23:16;16.97;;;9.67;;
10144;SDS011;5113;41.822;23.564;2022-10-26T08:26:22;17.57;;;10.30;;
10144;SDS011;5113;41.822;23.564;2022-10-26T08:29:29;25.33;;;11.83;;
10144;SDS011;5113;41.822;23.564;2022-10-26T08:32:35;16.33;;;9.17;;
10144;SDS011;5113;41.822;23.564;2022-10-26T08:35:43;15.87;;;8.20;;
10144;SDS011;5113;41.822;23.564;2022-10-26T08:38:49;11.43;;;7.70;;
10144;SDS011;5113;41.822;23.564;2022-10-26T08:41:57;18.00;;;7.90;;
10144;SDS011;5113;41.822;23.564;2022-10-26T08:45:09;14.63;;;8.47;;
10144;SDS011;5113;41.822;23.564;2022-10-26T08:48:23;17.60;;;8.57;;
10144;SDS011;5113;41.822;23.564;2022-10-26T08:51:35;18.00;;;7.53;;
10144;SDS011;5113;41.822;23.564;2022-10-26T08:54:47;11.93;;;6.90;;
10144;SDS011;5113;41.822;23.564;2022-10-26T08:57:56;12.73;;;7.93;;
10144;SDS011;5113;41.822;23.564;2022-10-26T09:01:06;12.43;;;7.07;;
10144;SDS011;5113;41.822;23.564;2022-10-26T09:04:14;16.93;;;7.07;;
10144;SDS011;5113;41.822;23.564;2022-10-26T09:07:27;16.30;;;7.33;;
10144;SDS011;5113;41.822;23.564;2022-10-26T09:10:48;9.33;;;4.73;;
10144;SDS011;5113;41.822;23.564;2022-10-26T09:14:08;13.10;;;4.80;;
10144;SDS011;5113;41.822;23.564;2022-10-26T09:17:22;6.63;;;3.90;;
10144;SDS011;5113;41.822;23.564;2022-10-26T09:20:47;12.03;;;4.97;;
10144;SDS011;5113;41.822;23.564;2022-10-26T09:24:02;9.17;;;5.67;;
10144;SDS011;5113;41.822;23.564;2022-10-26T09:27:13;7.17;;;3.83;;
10144;SDS011;5113;41.822;23.564;2022-10-26T09:30:25;10.43;;;4.33;;
10144;SDS011;5113;41.822;23.564;2022-10-26T09:33:34;5.37;;;4.40;;
10144;SDS011;5113;41.822;23.564;2022-10-26T09:36:44;9.67;;;4.53;;
10144;SDS011;5113;41.822;23.564;2022-10-26T09:39:57;9.80;;;3.67;;
10144;SDS011;5113;41.822;23.564;2022-10-26T09:43:13;6.10;;;3.50;;
10144;SDS011;5113;41.822;23.564;2022-10-26T09:46:25;8.50;;;3.80;;
10144;SDS011;5113;41.822;23.564;2022-10-26T09:49:38;4.77;;;3.30;;
10144;SDS011;5113;41.822;23.564;2022-10-26T09:52:51;5.63;;;3.40;;
10144;SDS011;5113;41.822;23.564;2022-10-26T09:56:00;4.50;;;3.97;;
10144;SDS011;5113;41.822;23.564;2022-10-26T09:59:10;8.80;;;3.63;;
10144;SDS011;5113;41.822;23.564;2022-10-26T10:02:33;5.03;;;2.57;;
10144;SDS011;5113;41.822;23.564;2022-10-26T10:05:40;6.07;;;4.00;;
10144;SDS011;5113;41.822;23.564;2022-10-26T10:09:03;3.70;;;2.87;;
10144;SDS011;5113;41.822;23.564;2022-10-26T10:12:19;6.80;;;2.97;;
10144;SDS011;5113;41.822;23.564;2022-10-26T10:15:25;6.13;;;3.83;;
10144;SDS011;5113;41.822;23.564;2022-10-26T10:18:32;6.73;;;3.10;;
10144;SDS011;5113;41.822;23.564;2022-10-26T10:21:43;4.73;;;3.20;;
10144;SDS011;5113;41.822;23.564;2022-10-26T10:24:53;2.93;;;2.43;;
10144;SDS011;5113;41.822;23.564;2022-10-26T10:28:02;5.60;;;3.03;;
10144;SDS011;5113;41.822;23.564;2022-10-26T10:31:28;6.93;;;3.50;;
10144;SDS011;5113;41.822;23.564;2022-10-26T10:34:36;4.37;;;2.90;;
10144;SDS011;5113;41.822;23.564;2022-10-26T10:37:42;10.43;;;3.47;;
10144;SDS011;5113;41.822;23.564;2022-10-26T10:40:50;7.07;;;4.00;;
10144;SDS011;5113;41.822;23.564;2022-10-26T10:44:04;6.23;;;2.87;;
10144;SDS011;5113;41.822;23.564;2022-10-26T10:47:17;5.63;;;3.77;;
10144;SDS011;5113;41.822;23.564;2022-10-26T10:50:27;6.27;;;2.73;;
10144;SDS011;5113;41.822;23.564;2022-10-26T10:53:35;10.00;;;2.93;;
10144;SDS011;5113;41.822;23.564;2022-10-26T10:56:49;5.67;;;3.30;;
10144;SDS011;5113;41.822;23.564;2022-10-26T11:00:00;9.67;;;3.07;;
10144;SDS011;5113;41.822;23.564;2022-10-26T11:03:21;6.77;;;2.27;;
10144;SDS011;5113;41.822;23.564;2022-10-26T11:06:38;4.57;;;3.23;;
10144;SDS011;5113;41.822;23.564;2022-10-26T11:09:47;4.73;;;3.10;;
10144;SDS011;5113;41.822;23.564;2022-10-26T11:13:01;9.50;;;2.33;;
10144;SDS011;5113;41.822;23.564;2022-10-26T11:16:17;6.27;;;3.03;;
10144;SDS011;5113;41.822;23.564;2022-10-26T11:19:28;4.07;;;2.70;;
10144;SDS011;5113;41.822;23.564;2022-10-26T11:22:40;4.23;;;3.00;;
10144;SDS011;5113;41.822;23.564;2022-10-26T11:25:52;4.20;;;2.43;;
10144;SDS011;5113;41.822;23.564;2022-10-26T11:29:04;7.63;;;2.57;;
10144;SDS011;5113;41.822;23.564;2022-10-26T11:32:20;3.20;;;1.90;;
10144;SDS011;5113;41.822;23.564;2022-10-26T11:35:28;5.90;;;2.37;;
10144;SDS011;5113;41.822;23.564;2022-10-26T11:38:38;2.20;;;2.00;;
10144;SDS011;5113;41.822;23.564;2022-10-26T11:42:00;10.53;;;2.83;;
10144;SDS011;5113;41.822;23.564;2022-10-26T11:45:14;8.80;;;2.53;;
10144;SDS011;5113;41.822;23.564;2022-10-26T11:48:30;5.17;;;2.77;;
10144;SDS011;5113;41.822;23.564;2022-10-26T11:51:42;8.13;;;3.40;;
10144;SDS011;5113;41.822;23.564;2022-10-26T11:54:55;2.70;;;2.50;;
10144;SDS011;5113;41.822;23.564;2022-10-26T11:58:04;10.27;;;3.73;;
10144;SDS011;5113;41.822;23.564;2022-10-26T12:01:11;7.33;;;2.83;;
10144;SDS011;5113;41.822;23.564;2022-10-26T12:04:22;8.03;;;2.60;;
10144;SDS011;5113;41.822;23.564;2022-10-26T12:07:34;9.67;;;3.10;;
10144;SDS011;5113;41.822;23.564;2022-10-26T12:10:47;2.80;;;2.37;;
10144;SDS011;5113;41.822;23.564;2022-10-26T12:13:58;4.77;;;3.10;;
10144;SDS011;5113;41.822;23.564;2022-10-26T12:17:10;6.33;;;2.50;;
10144;SDS011;5113;41.822;23.564;2022-10-26T12:27:32;8.43;;;3.17;;
10144;SDS011;5113;41.822;23.564;2022-10-26T12:31:01;6.03;;;2.97;;
10144;SDS011;5113;41.822;23.564;2022-10-26T12:34:56;7.80;;;4.53;;
10144;SDS011;5113;41.822;23.564;2022-10-26T12:41:55;3.97;;;3.10;;
10144;SDS011;5113;41.822;23.564;2022-10-26T12:45:13;7.20;;;3.13;;
10144;SDS011;5113;41.822;23.564;2022-10-26T12:48:24;3.30;;;3.00;;
10144;SDS011;5113;41.822;23.564;2022-10-26T12:51:44;2.80;;;2.60;;
10144;SDS011;5113;41.822;23.564;2022-10-26T12:54:55;5.23;;;3.23;;
10144;SDS011;5113;41.822;23.564;2022-10-26T12:58:25;9.07;;;2.63;;
10144;SDS011;5113;41.822;23.564;2022-10-26T13:09:22;3.93;;;3.00;;
10144;SDS011;5113;41.822;23.564;2022-10-26T13:12:36;13.03;;;3.67;;
10144;SDS011;5113;41.822;23.564;2022-10-26T13:15:53;2.70;;;2.43;;
10144;SDS011;5113;41.822;23.564;2022-10-26T13:19:02;7.33;;;2.67;;
10144;SDS011;5113;41.822;23.564;2022-10-26T13:22:12;10.10;;;2.50;;
10144;SDS011;5113;41.822;23.564;2022-10-26T13:25:21;9.87;;;2.70;;
10144;SDS011;5113;41.822;23.564;2022-10-26T13:28:31;6.50;;;3.07;;
10144;SDS011;5113;41.822;23.564;2022-10-26T13:31:54;3.20;;;2.87;;
10144;SDS011;5113;41.822;23.564;2022-10-26T13:35:02;12.53;;;4.53;;
10144;SDS011;5113;41.822;23.564;2022-10-26T13:38:11;13.23;;;4.00;;
10144;SDS011;5113;41.822;23.564;2022-10-26T13:41:24;2.97;;;2.57;;
10144;SDS011;5113;41.822;23.564;2022-10-26T13:44:41;12.47;;;3.40;;
10144;SDS011;5113;41.822;23.564;2022-10-26T13:47:56;3.67;;;3.27;;
10144;SDS011;5113;41.822;23.564;2022-10-26T13:51:11;5.20;;;2.93;;
10144;SDS011;5113;41.822;23.564;2022-10-26T13:54:26;13.30;;;3.57;;
10144;SDS011;5113;41.822;23.564;2022-10-26T13:57:38;4.57;;;3.30;;
10144;SDS011;5113;41.822;23.564;2022-10-26T14:01:09;3.77;;;2.60;;
10144;SDS011;5113;41.822;23.564;2022-10-26T14:04:24;7.27;;;3.30;;
10144;SDS011;5113;41.822;23.564;2022-10-26T14:07:33;6.47;;;3.40;;
10144;SDS011;5113;41.822;23.564;2022-10-26T14:10:41;5.70;;;3.57;;
10144;SDS011;5113;41.822;23.564;2022-10-26T14:13:52;7.60;;;4.70;;
10144;SDS011;5113;41.822;23.564;2022-10-26T14:16:58;8.00;;;4.27;;
10144;SDS011;5113;41.822;23.564;2022-10-26T14:20:10;8.17;;;4.83;;
10144;SDS011;5113;41.822;23.564;2022-10-26T14:23:26;8.30;;;5.50;;
10144;SDS011;5113;41.822;23.564;2022-10-26T14:26:37;17.37;;;9.03;;
10144;SDS011;5113;41.822;23.564;2022-10-26T14:29:44;15.33;;;8.33;;
10144;SDS011;5113;41.822;23.564;2022-10-26T14:33:16;15.10;;;7.07;;
10144;SDS011;5113;41.822;23.564;2022-10-26T14:36:27;12.27;;;6.90;;
10144;SDS011;5113;41.822;23.564;2022-10-26T14:39:37;7.27;;;5.70;;
10144;SDS011;5113;41.822;23.564;2022-10-26T14:42:47;7.27;;;5.77;;
10144;SDS011;5113;41.822;23.564;2022-10-26T14:45:56;11.03;;;8.83;;
10144;SDS011;5113;41.822;23.564;2022-10-26T14:49:02;9.73;;;7.23;;
10144;SDS011;5113;41.822;23.564;2022-10-26T14:52:11;17.30;;;9.97;;
10144;SDS011;5113;41.822;23.564;2022-10-26T14:55:28;25.70;;;14.60;;
10144;SDS011;5113;41.822;23.564;2022-10-26T14:58:37;29.57;;;17.00;;
10144;SDS011;5113;41.822;23.564;2022-10-26T15:01:48;17.70;;;11.77;;
10144;SDS011;5113;41.822;23.564;2022-10-26T15:04:56;18.03;;;12.40;;
10144;SDS011;5113;41.822;23.564;2022-10-26T15:12:01;24.07;;;14.83;;
10144;SDS011;5113;41.822;23.564;2022-10-26T15:15:13;32.83;;;20.13;;
10144;SDS011;5113;41.822;23.564;2022-10-26T15:18:32;32.57;;;20.30;;
10144;SDS011;5113;41.822;23.564;2022-10-26T15:21:43;31.47;;;15.83;;
10144;SDS011;5113;41.822;23.564;2022-10-26T15:24:52;29.53;;;15.33;;
10144;SDS011;5113;41.822;23.564;2022-10-26T15:28:08;33.50;;;18.50;;
10144;SDS011;5113;41.822;23.564;2022-10-26T15:31:29;30.87;;;19.43;;
10144;SDS011;5113;41.822;23.564;2022-10-26T15:34:37;28.00;;;20.53;;
10144;SDS011;5113;41.822;23.564;2022-10-26T15:37:44;28.63;;;18.77;;
10144;SDS011;5113;41.822;23.564;2022-10-26T15:40:50;37.13;;;21.87;;
10144;SDS011;5113;41.822;23.564;2022-10-26T15:43:59;32.97;;;21.13;;
10144;SDS011;5113;41.822;23.564;2022-10-26T15:47:12;72.90;;;33.40;;
10144;SDS011;5113;41.822;23.564;2022-10-26T15:50:24;58.83;;;30.37;;
10144;SDS011;5113;41.822;23.564;2022-10-26T15:53:31;57.40;;;29.23;;
10144;SDS011;5113;41.822;23.564;2022-10-26T15:56:37;53.77;;;27.90;;
10144;SDS011;5113;41.822;23.564;2022-10-26T15:59:48;53.50;;;25.67;;
10144;SDS011;5113;41.822;23.564;2022-10-26T16:02:54;49.97;;;25.97;;
10144;SDS011;5113;41.822;23.564;2022-10-26T16:06:01;52.67;;;28.17;;
10144;SDS011;5113;41.822;23.564;2022-10-26T16:09:09;56.40;;;27.57;;
10144;SDS011;5113;41.822;23.564;2022-10-26T16:12:18;48.77;;;26.83;;
10144;SDS011;5113;41.822;23.564;2022-10-26T16:15:26;39.97;;;20.37;;
10144;SDS011;5113;41.822;23.564;2022-10-26T16:18:31;35.20;;;16.30;;
10144;SDS011;5113;41.822;23.564;2022-10-26T16:21:38;38.50;;;15.43;;
10144;SDS011;5113;41.822;23.564;2022-10-26T16:24:45;46.17;;;22.37;;
10144;SDS011;5113;41.822;23.564;2022-10-26T16:27:51;52.80;;;21.93;;
10144;SDS011;5113;41.822;23.564;2022-10-26T16:31:00;60.23;;;25.47;;
10144;SDS011;5113;41.822;23.564;2022-10-26T16:34:07;60.30;;;30.63;;
10144;SDS011;5113;41.822;23.564;2022-10-26T16:37:13;46.77;;;20.57;;
10144;SDS011;5113;41.822;23.564;2022-10-26T16:40:19;14.60;;;10.57;;
10144;SDS011;5113;41.822;23.564;2022-10-26T16:43:26;21.03;;;11.07;;
10144;SDS011;5113;41.822;23.564;2022-10-26T16:46:34;18.63;;;12.37;;
10144;SDS011;5113;41.822;23.564;2022-10-26T16:49:40;27.87;;;17.97;;
10144;SDS011;5113;41.822;23.564;2022-10-26T16:52:48;30.17;;;17.67;;
10144;SDS011;5113;41.822;23.564;2022-10-26T16:55:57;22.93;;;15.13;;
10144;SDS011;5113;41.822;23.564;2022-10-26T16:59:07;29.70;;;14.73;;
10144;SDS011;5113;41.822;23.564;2022-10-26T17:02:15;25.70;;;12.73;;
10144;SDS011;5113;41.822;23.564;2022-10-26T17:05:21;30.70;;;15.27;;
10144;SDS011;5113;41.822;23.564;2022-10-26T17:08:28;28.07;;;15.80;;
10144;SDS011;5113;41.822;23.564;2022-10-26T17:11:36;30.47;;;17.93;;
10144;SDS011;5113;41.822;23.564;2022-10-26T17:14:42;35.73;;;18.27;;
10144;SDS011;5113;41.822;23.564;2022-10-26T17:17:49;32.20;;;17.63;;
10144;SDS011;5113;41.822;23.564;2022-10-26T17:20:55;50.23;;;28.70;;
10144;SDS011;5113;41.822;23.564;2022-10-26T17:24:02;52.97;;;27.80;;
10144;SDS011;5113;41.822;23.564;2022-10-26T17:27:10;106.67;;;50.00;;
10144;SDS011;5113;41.822;23.564;2022-10-26T17:30:16;95.63;;;45.63;;
10144;SDS011;5113;41.822;23.564;2022-10-26T17:33:24;94.50;;;44.53;;
10144;SDS011;5113;41.822;23.564;2022-10-26T17:36:30;107.50;;;55.03;;
10144;SDS011;5113;41.822;23.564;2022-10-26T17:39:37;118.70;;;60.87;;
10144;SDS011;5113;41.822;23.564;2022-10-26T17:42:43;88.93;;;46.83;;
10144;SDS011;5113;41.822;23.564;2022-10-26T17:45:50;97.37;;;46.10;;
10144;SDS011;5113;41.822;23.564;2022-10-26T17:48:58;107.50;;;46.00;;
10144;SDS011;5113;41.822;23.564;2022-10-26T17:52:05;94.13;;;45.87;;
10144;SDS011;5113;41.822;23.564;2022-10-26T17:55:11;101.93;;;46.10;;
10144;SDS011;5113;41.822;23.564;2022-10-26T17:58:17;109.23;;;51.67;;
10144;SDS011;5113;41.822;23.564;2022-10-26T18:01:24;85.00;;;47.07;;
10144;SDS011;5113;41.822;23.564;2022-10-26T18:04:33;148.63;;;64.40;;
10144;SDS011;5113;41.822;23.564;2022-10-26T18:07:39;158.07;;;68.37;;
10144;SDS011;5113;41.822;23.564;2022-10-26T18:10:45;110.40;;;53.20;;
10144;SDS011;5113;41.822;23.564;2022-10-26T18:13:52;127.90;;;53.83;;
10144;SDS011;5113;41.822;23.564;2022-10-26T18:16:58;100.17;;;49.63;;
10144;SDS011;5113;41.822;23.564;2022-10-26T18:20:07;86.23;;;40.37;;
10144;SDS011;5113;41.822;23.564;2022-10-26T18:23:13;88.60;;;42.07;;
10144;SDS011;5113;41.822;23.564;2022-10-26T18:26:20;71.80;;;38.97;;
10144;SDS011;5113;41.822;23.564;2022-10-26T18:29:28;85.27;;;37.23;;
10144;SDS011;5113;41.822;23.564;2022-10-26T18:32:36;83.13;;;37.90;;
10144;SDS011;5113;41.822;23.564;2022-10-26T18:35:44;79.40;;;36.27;;
10144;SDS011;5113;41.822;23.564;2022-10-26T18:38:51;74.43;;;34.97;;
10144;SDS011;5113;41.822;23.564;2022-10-26T18:41:57;65.40;;;33.87;;
10144;SDS011;5113;41.822;23.564;2022-10-26T18:45:04;71.47;;;34.47;;
10144;SDS011;5113;41.822;23.564;2022-10-26T18:48:11;70.53;;;36.47;;
10144;SDS011;5113;41.822;23.564;2022-10-26T18:51:19;86.70;;;37.47;;
10144;SDS011;5113;41.822;23.564;2022-10-26T18:54:29;54.30;;;29.20;;
10144;SDS011;5113;41.822;23.564;2022-10-26T18:57:35;61.43;;;30.80;;
10144;SDS011;5113;41.822;23.564;2022-10-26T19:00:41;76.13;;;35.77;;
10144;SDS011;5113;41.822;23.564;2022-10-26T19:03:51;35.13;;;19.93;;
10144;SDS011;5113;41.822;23.564;2022-10-26T19:06:59;39.20;;;22.50;;
10144;SDS011;5113;41.822;23.564;2022-10-26T19:10:06;50.90;;;25.40;;
10144;SDS011;5113;41.822;23.564;2022-10-26T19:13:13;51.23;;;24.10;;